Littlerock, California
Current Conditions -  °F | °C
As of 8:53 PM on Saturday 20 Dec 2014 (Local Time) from KPMD Reporting Station
Clear Clear  
Wind Chill: 51°   Ceiling: Unl
Heat Index: 51°   Visibility: 10mi
Dew Point: 45°   Wind: 7mph
Humidity: 80%   Direction: 320°NW
Pressure: 30.19"   Gusts: NA
Location:  34.52°N, 117.99°W
Report Text: KPMD 210453Z AUTO 32006KT 10SM CLR 11/07 A3019 RMK AO2 SLP220 T01060072
Loading
Personal Weather Stations






























Interactive Weather Map New forecast layout! Learn more

10-Day Weather Forecast

Advertisements
Track Severe Weather on mobile